sensor_id;sensor_type;location;lat;lon;timestamp;temperature;humidity
55488;DHT22;41352;53.158;6.788;2023-08-21T00:01:21;16.00;99.90
55488;DHT22;41352;53.158;6.788;2023-08-21T00:03:50;16.00;99.90
55488;DHT22;41352;53.158;6.788;2023-08-21T00:06:16;16.00;99.90
55488;DHT22;41352;53.158;6.788;2023-08-21T00:08:41;15.90;99.90
55488;DHT22;41352;53.158;6.788;2023-08-21T00:11:07;15.90;99.90
55488;DHT22;41352;53.158;6.788;2023-08-21T00:13:33;15.90;99.90
55488;DHT22;41352;53.158;6.788;2023-08-21T00:15:58;15.90;99.90
55488;DHT22;41352;53.158;6.788;2023-08-21T00:18:24;15.80;99.90
55488;DHT22;41352;53.158;6.788;2023-08-21T00:20:50;15.80;99.90
55488;DHT22;41352;53.158;6.788;2023-08-21T00:23:16;15.70;99.90
55488;DHT22;41352;53.158;6.788;2023-08-21T00:25:45;15.80;99.90
55488;DHT22;41352;53.158;6.788;2023-08-21T00:28:14;15.70;99.90
55488;DHT22;41352;53.158;6.788;2023-08-21T00:30:42;15.70;99.90
55488;DHT22;41352;53.158;6.788;2023-08-21T00:33:07;15.60;99.90
55488;DHT22;41352;53.158;6.788;2023-08-21T00:35:33;15.60;99.90
55488;DHT22;41352;53.158;6.788;2023-08-21T00:37:59;15.60;99.90
55488;DHT22;41352;53.158;6.788;2023-08-21T00:40:24;15.60;99.90
55488;DHT22;41352;53.158;6.788;2023-08-21T00:42:50;15.50;99.90
55488;DHT22;41352;53.158;6.788;2023-08-21T00:45:16;15.50;99.90
55488;DHT22;41352;53.158;6.788;2023-08-21T00:47:42;15.40;99.90
55488;DHT22;41352;53.158;6.788;2023-08-21T00:50:09;15.40;99.90
55488;DHT22;41352;53.158;6.788;2023-08-21T00:52:38;15.30;99.90
55488;DHT22;41352;53.158;6.788;2023-08-21T00:55:06;15.30;99.90
55488;DHT22;41352;53.158;6.788;2023-08-21T00:57:32;15.30;99.90
55488;DHT22;41352;53.158;6.788;2023-08-21T01:00:00;15.30;99.90
55488;DHT22;41352;53.158;6.788;2023-08-21T01:02:26;15.30;99.90
55488;DHT22;41352;53.158;6.788;2023-08-21T01:04:52;15.20;99.90
55488;DHT22;41352;53.158;6.788;2023-08-21T01:07:17;15.20;99.90
55488;DHT22;41352;53.158;6.788;2023-08-21T01:12:34;15.20;99.90
55488;DHT22;41352;53.158;6.788;2023-08-21T01:15:05;15.10;99.90
55488;DHT22;41352;53.158;6.788;2023-08-21T01:17:33;15.10;99.90
55488;DHT22;41352;53.158;6.788;2023-08-21T01:20:00;15.10;99.90
55488;DHT22;41352;53.158;6.788;2023-08-21T01:22:37;15.10;99.90
55488;DHT22;41352;53.158;6.788;2023-08-21T01:25:07;15.00;99.90
55488;DHT22;41352;53.158;6.788;2023-08-21T01:27:34;15.00;99.90
55488;DHT22;41352;53.158;6.788;2023-08-21T01:30:01;15.00;99.90
55488;DHT22;41352;53.158;6.788;2023-08-21T01:32:40;14.90;99.90
55488;DHT22;41352;53.158;6.788;2023-08-21T01:35:09;14.90;99.90
55488;DHT22;41352;53.158;6.788;2023-08-21T01:37:36;14.90;99.90
55488;DHT22;41352;53.158;6.788;2023-08-21T01:40:02;14.80;99.90
55488;DHT22;41352;53.158;6.788;2023-08-21T01:42:28;14.80;99.90
55488;DHT22;41352;53.158;6.788;2023-08-21T01:44:54;14.70;99.90
55488;DHT22;41352;53.158;6.788;2023-08-21T01:47:20;14.60;99.90
55488;DHT22;41352;53.158;6.788;2023-08-21T01:49:49;14.60;99.90
55488;DHT22;41352;53.158;6.788;2023-08-21T01:52:18;14.70;99.90
55488;DHT22;41352;53.158;6.788;2023-08-21T01:54:44;14.70;99.90
55488;DHT22;41352;53.158;6.788;2023-08-21T01:57:09;14.70;99.90
55488;DHT22;41352;53.158;6.788;2023-08-21T01:59:35;14.60;99.90
55488;DHT22;41352;53.158;6.788;2023-08-21T02:02:01;14.60;99.90
55488;DHT22;41352;53.158;6.788;2023-08-21T02:04:26;14.60;99.90
55488;DHT22;41352;53.158;6.788;2023-08-21T02:06:52;14.50;99.90
55488;DHT22;41352;53.158;6.788;2023-08-21T02:09:18;14.50;99.90
55488;DHT22;41352;53.158;6.788;2023-08-21T02:11:43;14.50;99.90
55488;DHT22;41352;53.158;6.788;2023-08-21T02:14:09;14.40;99.90
55488;DHT22;41352;53.158;6.788;2023-08-21T02:16:35;14.40;99.90
55488;DHT22;41352;53.158;6.788;2023-08-21T02:19:00;14.30;99.90
55488;DHT22;41352;53.158;6.788;2023-08-21T02:21:26;14.40;99.90
55488;DHT22;41352;53.158;6.788;2023-08-21T02:23:52;14.40;99.90
55488;DHT22;41352;53.158;6.788;2023-08-21T02:26:17;14.30;99.90
55488;DHT22;41352;53.158;6.788;2023-08-21T02:31:15;14.10;99.90
55488;DHT22;41352;53.158;6.788;2023-08-21T02:33:41;14.00;99.90
55488;DHT22;41352;53.158;6.788;2023-08-21T02:36:07;14.00;99.90
55488;DHT22;41352;53.158;6.788;2023-08-21T02:38:33;13.90;99.90
55488;DHT22;41352;53.158;6.788;2023-08-21T02:40:58;13.90;99.90
55488;DHT22;41352;53.158;6.788;2023-08-21T02:43:24;13.80;99.90
55488;DHT22;41352;53.158;6.788;2023-08-21T02:45:50;13.90;99.90
55488;DHT22;41352;53.158;6.788;2023-08-21T02:48:16;13.80;99.90
55488;DHT22;41352;53.158;6.788;2023-08-21T02:50:42;13.80;99.90
55488;DHT22;41352;53.158;6.788;2023-08-21T02:53:07;13.80;99.90
55488;DHT22;41352;53.158;6.788;2023-08-21T02:55:34;13.50;99.90
55488;DHT22;41352;53.158;6.788;2023-08-21T02:57:59;13.40;99.90
55488;DHT22;41352;53.158;6.788;2023-08-21T03:00:25;13.40;99.90
55488;DHT22;41352;53.158;6.788;2023-08-21T03:02:51;13.30;99.90
55488;DHT22;41352;53.158;6.788;2023-08-21T03:05:18;13.20;99.90
55488;DHT22;41352;53.158;6.788;2023-08-21T03:07:43;13.10;99.90
55488;DHT22;41352;53.158;6.788;2023-08-21T03:10:09;13.10;99.90
55488;DHT22;41352;53.158;6.788;2023-08-21T03:12:35;13.00;99.90
55488;DHT22;41352;53.158;6.788;2023-08-21T03:15:01;12.90;99.90
55488;DHT22;41352;53.158;6.788;2023-08-21T03:17:27;12.90;99.90
55488;DHT22;41352;53.158;6.788;2023-08-21T03:19:52;12.90;99.90
55488;DHT22;41352;53.158;6.788;2023-08-21T03:22:18;12.90;99.90
55488;DHT22;41352;53.158;6.788;2023-08-21T03:24:44;13.00;99.90
55488;DHT22;41352;53.158;6.788;2023-08-21T03:27:09;13.00;99.90
55488;DHT22;41352;53.158;6.788;2023-08-21T03:29:35;13.00;99.90
55488;DHT22;41352;53.158;6.788;2023-08-21T03:32:01;13.00;99.90
55488;DHT22;41352;53.158;6.788;2023-08-21T03:34:26;12.90;99.90
55488;DHT22;41352;53.158;6.788;2023-08-21T03:36:52;12.90;99.90
55488;DHT22;41352;53.158;6.788;2023-08-21T03:39:18;12.90;99.90
55488;DHT22;41352;53.158;6.788;2023-08-21T03:41:43;12.90;99.90
55488;DHT22;41352;53.158;6.788;2023-08-21T03:44:09;12.90;99.90
55488;DHT22;41352;53.158;6.788;2023-08-21T03:46:35;12.90;99.90
55488;DHT22;41352;53.158;6.788;2023-08-21T03:49:00;12.90;99.90
55488;DHT22;41352;53.158;6.788;2023-08-21T03:51:26;12.90;99.90
55488;DHT22;41352;53.158;6.788;2023-08-21T03:53:52;12.90;99.90
55488;DHT22;41352;53.158;6.788;2023-08-21T03:56:17;12.90;99.90
55488;DHT22;41352;53.158;6.788;2023-08-21T03:58:44;12.90;99.90
55488;DHT22;41352;53.158;6.788;2023-08-21T04:01:10;12.90;99.90
55488;DHT22;41352;53.158;6.788;2023-08-21T04:03:36;12.80;99.90
55488;DHT22;41352;53.158;6.788;2023-08-21T04:06:02;12.80;99.90
55488;DHT22;41352;53.158;6.788;2023-08-21T04:08:28;12.80;99.90
55488;DHT22;41352;53.158;6.788;2023-08-21T04:10:53;12.80;99.90
55488;DHT22;41352;53.158;6.788;2023-08-21T04:13:19;12.80;99.90
55488;DHT22;41352;53.158;6.788;2023-08-21T04:18:14;12.80;99.90
55488;DHT22;41352;53.158;6.788;2023-08-21T04:20:40;12.80;99.90
55488;DHT22;41352;53.158;6.788;2023-08-21T04:23:06;12.70;99.90
55488;DHT22;41352;53.158;6.788;2023-08-21T04:25:31;12.70;99.90
55488;DHT22;41352;53.158;6.788;2023-08-21T04:27:57;12.60;99.90
55488;DHT22;41352;53.158;6.788;2023-08-21T04:30:23;12.60;99.90
55488;DHT22;41352;53.158;6.788;2023-08-21T04:32:48;12.60;99.90
55488;DHT22;41352;53.158;6.788;2023-08-21T04:35:14;12.70;99.90
55488;DHT22;41352;53.158;6.788;2023-08-21T04:37:47;12.70;99.90
55488;DHT22;41352;53.158;6.788;2023-08-21T04:40:15;12.80;99.90
55488;DHT22;41352;53.158;6.788;2023-08-21T04:42:43;12.80;99.90
55488;DHT22;41352;53.158;6.788;2023-08-21T04:45:09;12.80;99.90
55488;DHT22;41352;53.158;6.788;2023-08-21T04:47:35;12.90;99.90
55488;DHT22;41352;53.158;6.788;2023-08-21T04:50:01;12.90;99.90
55488;DHT22;41352;53.158;6.788;2023-08-21T04:52:26;12.90;99.90
55488;DHT22;41352;53.158;6.788;2023-08-21T04:54:53;12.90;99.90
55488;DHT22;41352;53.158;6.788;2023-08-21T04:57:19;13.00;99.90
55488;DHT22;41352;53.158;6.788;2023-08-21T04:59:49;13.00;99.90
55488;DHT22;41352;53.158;6.788;2023-08-21T05:02:15;13.00;99.90
55488;DHT22;41352;53.158;6.788;2023-08-21T05:04:41;13.00;99.90
55488;DHT22;41352;53.158;6.788;2023-08-21T05:07:06;13.00;99.90
55488;DHT22;41352;53.158;6.788;2023-08-21T05:09:32;13.00;99.90
55488;DHT22;41352;53.158;6.788;2023-08-21T05:11:59;13.10;99.90
55488;DHT22;41352;53.158;6.788;2023-08-21T05:14:24;13.20;99.90
55488;DHT22;41352;53.158;6.788;2023-08-21T05:16:50;13.30;99.90
55488;DHT22;41352;53.158;6.788;2023-08-21T05:19:17;13.40;99.90
55488;DHT22;41352;53.158;6.788;2023-08-21T05:21:43;13.50;99.90
55488;DHT22;41352;53.158;6.788;2023-08-21T05:24:09;13.60;99.90
55488;DHT22;41352;53.158;6.788;2023-08-21T05:26:38;13.70;99.90
55488;DHT22;41352;53.158;6.788;2023-08-21T05:29:04;13.80;99.90
55488;DHT22;41352;53.158;6.788;2023-08-21T05:31:30;13.90;99.90
55488;DHT22;41352;53.158;6.788;2023-08-21T05:33:56;14.10;99.90
55488;DHT22;41352;53.158;6.788;2023-08-21T05:36:21;14.20;99.90
55488;DHT22;41352;53.158;6.788;2023-08-21T05:38:50;14.30;99.90
55488;DHT22;41352;53.158;6.788;2023-08-21T05:41:17;14.50;99.90
55488;DHT22;41352;53.158;6.788;2023-08-21T05:43:43;14.60;99.90
55488;DHT22;41352;53.158;6.788;2023-08-21T05:46:08;14.70;99.90
55488;DHT22;41352;53.158;6.788;2023-08-21T05:48:34;14.90;99.90
55488;DHT22;41352;53.158;6.788;2023-08-21T05:51:00;15.00;99.90
55488;DHT22;41352;53.158;6.788;2023-08-21T05:53:26;15.00;99.90
55488;DHT22;41352;53.158;6.788;2023-08-21T05:55:53;15.00;99.90
55488;DHT22;41352;53.158;6.788;2023-08-21T05:58:19;15.00;99.90
55488;DHT22;41352;53.158;6.788;2023-08-21T06:03:11;15.20;99.90
55488;DHT22;41352;53.158;6.788;2023-08-21T06:05:36;15.20;99.90
55488;DHT22;41352;53.158;6.788;2023-08-21T06:08:02;15.40;99.90
55488;DHT22;41352;53.158;6.788;2023-08-21T06:10:28;15.60;99.90
55488;DHT22;41352;53.158;6.788;2023-08-21T06:12:54;15.70;99.90
55488;DHT22;41352;53.158;6.788;2023-08-21T06:15:19;16.00;99.90
55488;DHT22;41352;53.158;6.788;2023-08-21T06:20:15;16.40;99.90
55488;DHT22;41352;53.158;6.788;2023-08-21T06:22:40;16.60;99.90
55488;DHT22;41352;53.158;6.788;2023-08-21T06:25:09;16.90;99.90
55488;DHT22;41352;53.158;6.788;2023-08-21T06:27:34;17.20;99.90
55488;DHT22;41352;53.158;6.788;2023-08-21T06:30:00;17.30;99.90
55488;DHT22;41352;53.158;6.788;2023-08-21T06:32:26;17.60;99.90
55488;DHT22;41352;53.158;6.788;2023-08-21T06:34:51;18.10;99.90
55488;DHT22;41352;53.158;6.788;2023-08-21T06:37:17;18.20;99.90
55488;DHT22;41352;53.158;6.788;2023-08-21T06:39:43;18.50;99.90
55488;DHT22;41352;53.158;6.788;2023-08-21T06:42:08;18.70;99.90
55488;DHT22;41352;53.158;6.788;2023-08-21T06:44:35;19.00;99.90
55488;DHT22;41352;53.158;6.788;2023-08-21T06:47:00;19.10;99.90
55488;DHT22;41352;53.158;6.788;2023-08-21T06:49:27;19.30;99.90
55488;DHT22;41352;53.158;6.788;2023-08-21T06:51:52;19.50;99.90
55488;DHT22;41352;53.158;6.788;2023-08-21T06:54:18;19.70;99.90
55488;DHT22;41352;53.158;6.788;2023-08-21T06:56:44;20.00;99.90
55488;DHT22;41352;53.158;6.788;2023-08-21T06:59:10;20.30;99.90
55488;DHT22;41352;53.158;6.788;2023-08-21T07:01:35;20.50;99.90
55488;DHT22;41352;53.158;6.788;2023-08-21T07:04:01;20.70;99.90
55488;DHT22;41352;53.158;6.788;2023-08-21T07:06:30;20.90;99.90
55488;DHT22;41352;53.158;6.788;2023-08-21T07:08:56;21.10;99.90
55488;DHT22;41352;53.158;6.788;2023-08-21T07:11:22;21.30;99.90
55488;DHT22;41352;53.158;6.788;2023-08-21T07:16:15;21.80;99.90
55488;DHT22;41352;53.158;6.788;2023-08-21T07:18:40;21.90;99.90
55488;DHT22;41352;53.158;6.788;2023-08-21T07:21:06;22.10;99.90
55488;DHT22;41352;53.158;6.788;2023-08-21T07:23:32;22.20;99.90
55488;DHT22;41352;53.158;6.788;2023-08-21T07:26:00;22.30;99.90
55488;DHT22;41352;53.158;6.788;2023-08-21T07:28:26;22.40;99.90
55488;DHT22;41352;53.158;6.788;2023-08-21T07:30:58;22.30;99.90
55488;DHT22;41352;53.158;6.788;2023-08-21T07:33:25;22.50;99.90
55488;DHT22;41352;53.158;6.788;2023-08-21T07:36:18;22.60;99.90
55488;DHT22;41352;53.158;6.788;2023-08-21T07:38:44;22.50;99.90
55488;DHT22;41352;53.158;6.788;2023-08-21T07:41:11;22.80;99.90
55488;DHT22;41352;53.158;6.788;2023-08-21T07:43:39;22.90;99.90
55488;DHT22;41352;53.158;6.788;2023-08-21T07:46:06;23.10;99.90
55488;DHT22;41352;53.158;6.788;2023-08-21T07:48:32;23.40;99.90
55488;DHT22;41352;53.158;6.788;2023-08-21T07:50:58;23.70;99.90
55488;DHT22;41352;53.158;6.788;2023-08-21T07:53:25;23.70;99.90
55488;DHT22;41352;53.158;6.788;2023-08-21T07:55:51;23.80;99.90
55488;DHT22;41352;53.158;6.788;2023-08-21T07:58:18;23.90;99.90
55488;DHT22;41352;53.158;6.788;2023-08-21T08:00:44;24.20;99.90
55488;DHT22;41352;53.158;6.788;2023-08-21T08:03:10;24.40;99.90
55488;DHT22;41352;53.158;6.788;2023-08-21T08:05:37;24.90;99.90
55488;DHT22;41352;53.158;6.788;2023-08-21T08:08:04;25.40;99.90
55488;DHT22;41352;53.158;6.788;2023-08-21T08:10:30;25.80;99.90
55488;DHT22;41352;53.158;6.788;2023-08-21T08:12:55;25.60;99.90
55488;DHT22;41352;53.158;6.788;2023-08-21T08:15:22;26.10;99.90
55488;DHT22;41352;53.158;6.788;2023-08-21T08:17:49;26.50;99.90
55488;DHT22;41352;53.158;6.788;2023-08-21T08:20:21;26.60;99.90
55488;DHT22;41352;53.158;6.788;2023-08-21T08:22:50;27.00;99.90
55488;DHT22;41352;53.158;6.788;2023-08-21T08:25:16;27.60;99.90
55488;DHT22;41352;53.158;6.788;2023-08-21T08:27:43;28.00;99.90
55488;DHT22;41352;53.158;6.788;2023-08-21T08:30:09;28.00;99.90
55488;DHT22;41352;53.158;6.788;2023-08-21T08:32:35;28.20;99.90
55488;DHT22;41352;53.158;6.788;2023-08-21T08:35:03;28.30;99.90
55488;DHT22;41352;53.158;6.788;2023-08-21T08:37:29;28.80;99.90
55488;DHT22;41352;53.158;6.788;2023-08-21T08:39:54;28.90;99.90
55488;DHT22;41352;53.158;6.788;2023-08-21T08:42:20;29.20;99.90
55488;DHT22;41352;53.158;6.788;2023-08-21T08:44:50;29.10;99.90
55488;DHT22;41352;53.158;6.788;2023-08-21T08:47:19;29.00;99.90
55488;DHT22;41352;53.158;6.788;2023-08-21T08:52:11;28.80;99.90
55488;DHT22;41352;53.158;6.788;2023-08-21T08:54:37;29.10;99.90
55488;DHT22;41352;53.158;6.788;2023-08-21T08:57:03;29.30;99.90
55488;DHT22;41352;53.158;6.788;2023-08-21T08:59:33;29.20;99.90
55488;DHT22;41352;53.158;6.788;2023-08-21T09:01:59;29.90;99.90
55488;DHT22;41352;53.158;6.788;2023-08-21T09:04:25;30.00;99.90
55488;DHT22;41352;53.158;6.788;2023-08-21T09:06:51;29.70;99.90
55488;DHT22;41352;53.158;6.788;2023-08-21T09:09:17;30.40;99.90
55488;DHT22;41352;53.158;6.788;2023-08-21T09:11:43;30.80;99.90
55488;DHT22;41352;53.158;6.788;2023-08-21T09:14:10;30.20;99.90
55488;DHT22;41352;53.158;6.788;2023-08-21T09:16:37;30.40;99.90
55488;DHT22;41352;53.158;6.788;2023-08-21T09:19:03;31.00;99.90
55488;DHT22;41352;53.158;6.788;2023-08-21T09:21:29;30.90;99.90
55488;DHT22;41352;53.158;6.788;2023-08-21T09:24:01;31.50;99.90
55488;DHT22;41352;53.158;6.788;2023-08-21T09:26:31;31.10;99.90
55488;DHT22;41352;53.158;6.788;2023-08-21T09:29:02;31.00;99.90
55488;DHT22;41352;53.158;6.788;2023-08-21T09:31:31;31.40;99.90
55488;DHT22;41352;53.158;6.788;2023-08-21T09:33:58;31.70;99.90
55488;DHT22;41352;53.158;6.788;2023-08-21T09:36:24;31.30;99.90
55488;DHT22;41352;53.158;6.788;2023-08-21T09:38:51;31.20;99.90
55488;DHT22;41352;53.158;6.788;2023-08-21T09:41:21;30.70;99.90
55488;DHT22;41352;53.158;6.788;2023-08-21T09:43:51;31.30;99.90
55488;DHT22;41352;53.158;6.788;2023-08-21T09:46:27;31.20;99.90
55488;DHT22;41352;53.158;6.788;2023-08-21T09:48:53;31.20;99.90
55488;DHT22;41352;53.158;6.788;2023-08-21T09:51:19;30.60;99.90
55488;DHT22;41352;53.158;6.788;2023-08-21T09:53:50;30.50;99.90
55488;DHT22;41352;53.158;6.788;2023-08-21T09:56:19;30.90;99.90
55488;DHT22;41352;53.158;6.788;2023-08-21T10:01:15;30.40;99.90
55488;DHT22;41352;53.158;6.788;2023-08-21T10:03:43;30.20;99.90
55488;DHT22;41352;53.158;6.788;2023-08-21T10:06:18;30.30;99.90
55488;DHT22;41352;53.158;6.788;2023-08-21T10:11:19;31.00;99.90
55488;DHT22;41352;53.158;6.788;2023-08-21T10:16:19;30.90;99.90
55488;DHT22;41352;53.158;6.788;2023-08-21T10:18:50;31.10;99.90
55488;DHT22;41352;53.158;6.788;2023-08-21T10:21:18;31.00;99.90
55488;DHT22;41352;53.158;6.788;2023-08-21T10:26:18;30.60;99.90
55488;DHT22;41352;53.158;6.788;2023-08-21T10:31:38;30.80;99.60
55488;DHT22;41352;53.158;6.788;2023-08-21T10:34:09;30.40;99.90
55488;DHT22;41352;53.158;6.788;2023-08-21T10:39:31;30.60;99.90
55488;DHT22;41352;53.158;6.788;2023-08-21T10:42:04;31.10;99.20
55488;DHT22;41352;53.158;6.788;2023-08-21T10:54:54;30.90;99.90
55488;DHT22;41352;53.158;6.788;2023-08-21T10:57:21;31.50;99.70
55488;DHT22;41352;53.158;6.788;2023-08-21T11:02:17;31.30;99.40
55488;DHT22;41352;53.158;6.788;2023-08-21T11:04:43;31.10;99.40
55488;DHT22;41352;53.158;6.788;2023-08-21T11:07:10;31.70;99.00
55488;DHT22;41352;53.158;6.788;2023-08-21T11:09:36;31.80;98.70
55488;DHT22;41352;53.158;6.788;2023-08-21T11:12:10;32.00;98.90
55488;DHT22;41352;53.158;6.788;2023-08-21T11:14:36;32.10;98.50
55488;DHT22;41352;53.158;6.788;2023-08-21T11:17:02;31.40;98.00
55488;DHT22;41352;53.158;6.788;2023-08-21T11:19:33;31.60;98.00
55488;DHT22;41352;53.158;6.788;2023-08-21T11:22:03;31.40;98.90
55488;DHT22;41352;53.158;6.788;2023-08-21T11:24:42;31.40;98.50
55488;DHT22;41352;53.158;6.788;2023-08-21T11:27:10;32.10;97.60
55488;DHT22;41352;53.158;6.788;2023-08-21T11:34:35;36.30;93.00
55488;DHT22;41352;53.158;6.788;2023-08-21T11:37:02;36.00;94.60
55488;DHT22;41352;53.158;6.788;2023-08-21T11:39:39;38.00;93.60
55488;DHT22;41352;53.158;6.788;2023-08-21T11:42:09;39.40;92.90
55488;DHT22;41352;53.158;6.788;2023-08-21T11:44:44;37.20;91.80
55488;DHT22;41352;53.158;6.788;2023-08-21T11:47:16;37.80;92.20
55488;DHT22;41352;53.158;6.788;2023-08-21T11:49:42;37.60;93.10
55488;DHT22;41352;53.158;6.788;2023-08-21T11:52:09;39.50;92.00
55488;DHT22;41352;53.158;6.788;2023-08-21T11:54:37;35.00;92.70
55488;DHT22;41352;53.158;6.788;2023-08-21T11:57:07;33.60;94.50
55488;DHT22;41352;53.158;6.788;2023-08-21T11:59:33;34.10;93.70
55488;DHT22;41352;53.158;6.788;2023-08-21T12:01:59;32.60;94.20
55488;DHT22;41352;53.158;6.788;2023-08-21T12:04:25;31.70;94.80
55488;DHT22;41352;53.158;6.788;2023-08-21T12:06:52;30.60;95.10
55488;DHT22;41352;53.158;6.788;2023-08-21T12:09:17;33.60;94.80
55488;DHT22;41352;53.158;6.788;2023-08-21T12:11:44;36.30;92.80
55488;DHT22;41352;53.158;6.788;2023-08-21T12:14:10;37.90;92.20
55488;DHT22;41352;53.158;6.788;2023-08-21T12:16:37;38.20;91.70
55488;DHT22;41352;53.158;6.788;2023-08-21T12:19:03;39.10;91.10
55488;DHT22;41352;53.158;6.788;2023-08-21T12:21:29;38.60;91.20
55488;DHT22;41352;53.158;6.788;2023-08-21T12:23:54;39.80;90.40
55488;DHT22;41352;53.158;6.788;2023-08-21T12:26:20;39.80;89.30
55488;DHT22;41352;53.158;6.788;2023-08-21T12:28:50;40.10;89.60
55488;DHT22;41352;53.158;6.788;2023-08-21T12:31:16;41.10;87.40
55488;DHT22;41352;53.158;6.788;2023-08-21T12:33:45;41.20;86.30
55488;DHT22;41352;53.158;6.788;2023-08-21T12:36:10;40.40;86.30
55488;DHT22;41352;53.158;6.788;2023-08-21T12:38:36;40.30;85.90
55488;DHT22;41352;53.158;6.788;2023-08-21T12:41:02;41.30;85.80
55488;DHT22;41352;53.158;6.788;2023-08-21T12:43:28;42.10;83.90
55488;DHT22;41352;53.158;6.788;2023-08-21T12:45:54;40.40;85.00
55488;DHT22;41352;53.158;6.788;2023-08-21T12:48:20;42.10;83.70
55488;DHT22;41352;53.158;6.788;2023-08-21T12:53:15;40.90;84.80
55488;DHT22;41352;53.158;6.788;2023-08-21T12:55:41;41.00;83.90
55488;DHT22;41352;53.158;6.788;2023-08-21T12:58:08;42.50;83.70
55488;DHT22;41352;53.158;6.788;2023-08-21T13:00:33;42.20;81.90
55488;DHT22;41352;53.158;6.788;2023-08-21T13:02:59;41.80;82.50
55488;DHT22;41352;53.158;6.788;2023-08-21T13:05:25;42.40;82.40
55488;DHT22;41352;53.158;6.788;2023-08-21T13:07:51;40.80;81.90
55488;DHT22;41352;53.158;6.788;2023-08-21T13:10:18;37.90;84.40
55488;DHT22;41352;53.158;6.788;2023-08-21T13:12:44;36.70;85.90
55488;DHT22;41352;53.158;6.788;2023-08-21T13:15:10;35.20;87.30
55488;DHT22;41352;53.158;6.788;2023-08-21T13:17:36;33.70;89.00
55488;DHT22;41352;53.158;6.788;2023-08-21T13:20:02;32.80;90.00
55488;DHT22;41352;53.158;6.788;2023-08-21T13:22:28;33.00;90.20
55488;DHT22;41352;53.158;6.788;2023-08-21T13:24:54;32.90;90.50
55488;DHT22;41352;53.158;6.788;2023-08-21T13:27:19;32.80;90.50
55488;DHT22;41352;53.158;6.788;2023-08-21T13:32:15;32.30;90.50
55488;DHT22;41352;53.158;6.788;2023-08-21T13:34:41;32.40;91.30
55488;DHT22;41352;53.158;6.788;2023-08-21T13:37:06;32.40;91.60
55488;DHT22;41352;53.158;6.788;2023-08-21T13:39:32;32.90;91.70
55488;DHT22;41352;53.158;6.788;2023-08-21T13:41:58;33.20;91.50
55488;DHT22;41352;53.158;6.788;2023-08-21T13:44:23;33.40;90.40
55488;DHT22;41352;53.158;6.788;2023-08-21T13:46:50;32.80;90.20
55488;DHT22;41352;53.158;6.788;2023-08-21T13:49:15;33.20;90.00
55488;DHT22;41352;53.158;6.788;2023-08-21T13:51:41;32.60;90.80
55488;DHT22;41352;53.158;6.788;2023-08-21T13:54:07;32.30;91.20
55488;DHT22;41352;53.158;6.788;2023-08-21T13:56:33;31.80;91.10
55488;DHT22;41352;53.158;6.788;2023-08-21T13:58:59;31.30;91.40
55488;DHT22;41352;53.158;6.788;2023-08-21T14:01:24;31.60;91.40
55488;DHT22;41352;53.158;6.788;2023-08-21T14:03:50;31.90;91.60
55488;DHT22;41352;53.158;6.788;2023-08-21T14:06:16;32.80;91.40
55488;DHT22;41352;53.158;6.788;2023-08-21T14:08:41;34.00;90.70
55488;DHT22;41352;53.158;6.788;2023-08-21T14:11:08;35.60;90.10
55488;DHT22;41352;53.158;6.788;2023-08-21T14:13:34;37.70;88.60
55488;DHT22;41352;53.158;6.788;2023-08-21T14:15:59;36.50;87.40
55488;DHT22;41352;53.158;6.788;2023-08-21T14:18:25;36.30;86.50
55488;DHT22;41352;53.158;6.788;2023-08-21T14:20:51;36.10;86.40
55488;DHT22;41352;53.158;6.788;2023-08-21T14:23:16;35.10;85.80
55488;DHT22;41352;53.158;6.788;2023-08-21T14:25:42;32.90;89.50
55488;DHT22;41352;53.158;6.788;2023-08-21T14:28:08;32.10;90.50
55488;DHT22;41352;53.158;6.788;2023-08-21T14:30:33;32.40;90.70
55488;DHT22;41352;53.158;6.788;2023-08-21T14:32:59;32.10;91.00
55488;DHT22;41352;53.158;6.788;2023-08-21T14:35:25;31.50;91.40
55488;DHT22;41352;53.158;6.788;2023-08-21T14:37:51;31.00;92.50
55488;DHT22;41352;53.158;6.788;2023-08-21T14:40:16;31.40;92.90
55488;DHT22;41352;53.158;6.788;2023-08-21T14:42:42;32.20;92.60
55488;DHT22;41352;53.158;6.788;2023-08-21T14:45:08;31.90;92.30
55488;DHT22;41352;53.158;6.788;2023-08-21T14:47:34;31.80;92.10
55488;DHT22;41352;53.158;6.788;2023-08-21T14:50:01;31.90;92.40
55488;DHT22;41352;53.158;6.788;2023-08-21T14:52:27;31.70;92.30
55488;DHT22;41352;53.158;6.788;2023-08-21T14:54:53;32.00;92.60
55488;DHT22;41352;53.158;6.788;2023-08-21T14:57:19;31.70;92.40
55488;DHT22;41352;53.158;6.788;2023-08-21T14:59:44;32.50;92.20
55488;DHT22;41352;53.158;6.788;2023-08-21T15:02:10;34.00;91.50
55488;DHT22;41352;53.158;6.788;2023-08-21T15:04:36;34.10;89.20
55488;DHT22;41352;53.158;6.788;2023-08-21T15:07:02;32.20;90.60
55488;DHT22;41352;53.158;6.788;2023-08-21T15:09:28;31.80;92.00
55488;DHT22;41352;53.158;6.788;2023-08-21T15:11:53;32.40;92.30
55488;DHT22;41352;53.158;6.788;2023-08-21T15:14:19;32.40;92.00
55488;DHT22;41352;53.158;6.788;2023-08-21T15:16:45;31.80;91.70
55488;DHT22;41352;53.158;6.788;2023-08-21T15:19:10;31.00;92.30
55488;DHT22;41352;53.158;6.788;2023-08-21T15:21:36;31.40;92.10
55488;DHT22;41352;53.158;6.788;2023-08-21T15:24:02;31.50;91.90
55488;DHT22;41352;53.158;6.788;2023-08-21T15:26:29;31.00;92.00
55488;DHT22;41352;53.158;6.788;2023-08-21T15:28:55;30.90;92.50
55488;DHT22;41352;53.158;6.788;2023-08-21T15:31:20;31.10;92.60
55488;DHT22;41352;53.158;6.788;2023-08-21T15:33:50;30.70;91.80
55488;DHT22;41352;53.158;6.788;2023-08-21T15:36:16;30.50;92.90
55488;DHT22;41352;53.158;6.788;2023-08-21T15:38:42;29.80;97.80
55488;DHT22;41352;53.158;6.788;2023-08-21T15:41:07;29.70;99.10
55488;DHT22;41352;53.158;6.788;2023-08-21T15:43:33;28.80;99.50
55488;DHT22;41352;53.158;6.788;2023-08-21T15:46:01;29.20;99.90
55488;DHT22;41352;53.158;6.788;2023-08-21T15:48:30;29.40;99.90
55488;DHT22;41352;53.158;6.788;2023-08-21T15:50:55;29.00;99.90
55488;DHT22;41352;53.158;6.788;2023-08-21T15:53:21;29.20;99.90
55488;DHT22;41352;53.158;6.788;2023-08-21T15:58:15;27.90;99.90
55488;DHT22;41352;53.158;6.788;2023-08-21T16:00:41;27.70;99.90
55488;DHT22;41352;53.158;6.788;2023-08-21T16:03:07;27.30;99.90
55488;DHT22;41352;53.158;6.788;2023-08-21T16:05:32;26.90;99.90
55488;DHT22;41352;53.158;6.788;2023-08-21T16:07:58;27.10;99.90
55488;DHT22;41352;53.158;6.788;2023-08-21T16:10:24;27.30;99.90
55488;DHT22;41352;53.158;6.788;2023-08-21T16:12:49;27.20;99.90
55488;DHT22;41352;53.158;6.788;2023-08-21T16:15:15;27.20;99.90
55488;DHT22;41352;53.158;6.788;2023-08-21T16:17:41;27.20;99.90
55488;DHT22;41352;53.158;6.788;2023-08-21T16:20:06;26.90;99.90
55488;DHT22;41352;53.158;6.788;2023-08-21T16:22:34;26.30;99.90
55488;DHT22;41352;53.158;6.788;2023-08-21T16:25:01;26.80;99.90